CSN3773 ZHHH-ZGSD
Flight info
| Callsign | CSN3773 |
|---|---|
| Flight time | 1h 37m |
| Altitude | 25600 |
| Route | OLMIB W37 OMBEB R473 NOLON W90 POU W7 ZUH |
| Aircraft | B738/M-SDE2E3FGHIRWXY/LB1 |
Departure
| Time | 2026-04-27 03:31 |
|---|---|
| Airport | Wuhan Tianhe International Airport (ZHHH) |
Arrival
| Time | 2026-04-27 05:09 |
|---|---|
| Airport | Zhuhai Jinwan Airport (ZGSD) |
| Time | Latitude | Longitude | Altitude | Speed | Heading |
|---|---|---|---|---|---|
| 2026-04-27 03:15 | 30.77531 | 114.21612 | 107 ft | 2 kts | 222° |
| 2026-04-27 03:15 | 30.77543 | 114.21624 | 107 ft | 2 kts | 222° |
| 2026-04-27 03:15 | 30.77555 | 114.21637 | 107 ft | 2 kts | 221° |
| 2026-04-27 03:16 | 30.77568 | 114.21649 | 105 ft | 2 kts | 220° |
| 2026-04-27 03:16 | 30.77580 | 114.21662 | 105 ft | 2 kts | 220° |
| 2026-04-27 03:16 | 30.77594 | 114.21671 | 106 ft | 2 kts | 187° |
| 2026-04-27 03:16 | 30.77611 | 114.21670 | 106 ft | 2 kts | 154° |
| 2026-04-27 03:17 | 30.77620 | 114.21663 | 106 ft | 1 kts | 138° |
| 2026-04-27 03:17 | 30.77622 | 114.21661 | 106 ft | 0 kts | 136° |
| 2026-04-27 03:20 | 30.77619 | 114.21664 | 106 ft | 2 kts | 136° |
| 2026-04-27 03:20 | 30.77603 | 114.21683 | 106 ft | 5 kts | 134° |
| 2026-04-27 03:20 | 30.77571 | 114.21722 | 107 ft | 8 kts | 133° |
| 2026-04-27 03:21 | 30.77524 | 114.21782 | 107 ft | 11 kts | 130° |
| 2026-04-27 03:21 | 30.77467 | 114.21860 | 107 ft | 14 kts | 130° |
| 2026-04-27 03:21 | 30.77398 | 114.21953 | 107 ft | 16 kts | 131° |
| 2026-04-27 03:21 | 30.77322 | 114.22054 | 105 ft | 17 kts | 131° |
| 2026-04-27 03:22 | 30.77245 | 114.22146 | 105 ft | 15 kts | 153° |
| 2026-04-27 03:22 | 30.77160 | 114.22102 | 106 ft | 14 kts | 221° |
| 2026-04-27 03:22 | 30.77089 | 114.22028 | 106 ft | 13 kts | 221° |
| 2026-04-27 03:22 | 30.77018 | 114.21956 | 106 ft | 14 kts | 221° |
| 2026-04-27 03:23 | 30.76938 | 114.21876 | 107 ft | 16 kts | 221° |
| 2026-04-27 03:23 | 30.76851 | 114.21788 | 106 ft | 17 kts | 221° |
| 2026-04-27 03:23 | 30.76756 | 114.21692 | 105 ft | 19 kts | 221° |
| 2026-04-27 03:23 | 30.76655 | 114.21590 | 106 ft | 20 kts | 221° |
| 2026-04-27 03:24 | 30.76548 | 114.21481 | 106 ft | 21 kts | 222° |
| 2026-04-27 03:24 | 30.76437 | 114.21366 | 106 ft | 22 kts | 221° |
| 2026-04-27 03:24 | 30.76322 | 114.21249 | 107 ft | 22 kts | 221° |
| 2026-04-27 03:24 | 30.76207 | 114.21130 | 107 ft | 22 kts | 221° |
| 2026-04-27 03:25 | 30.76121 | 114.21035 | 107 ft | 14 kts | 240° |
| 2026-04-27 03:25 | 30.76150 | 114.20941 | 106 ft | 13 kts | 311° |
| 2026-04-27 03:25 | 30.76216 | 114.20855 | 106 ft | 15 kts | 311° |
| 2026-04-27 03:25 | 30.76294 | 114.20752 | 105 ft | 18 kts | 311° |
| 2026-04-27 03:26 | 30.76353 | 114.20675 | 105 ft | 20 kts | 311° |
| 2026-04-27 03:26 | 30.76489 | 114.20499 | 106 ft | 24 kts | 311° |
| 2026-04-27 03:26 | 30.76597 | 114.20356 | 105 ft | 23 kts | 311° |
| 2026-04-27 03:26 | 30.76667 | 114.20265 | 105 ft | 23 kts | 311° |
| 2026-04-27 03:27 | 30.76769 | 114.20129 | 103 ft | 22 kts | 311° |
| 2026-04-27 03:27 | 30.76869 | 114.19998 | 103 ft | 21 kts | 311° |
| 2026-04-27 03:27 | 30.76954 | 114.19886 | 104 ft | 13 kts | 311° |
| 2026-04-27 03:27 | 30.77031 | 114.19850 | 104 ft | 10 kts | 8° |
| 2026-04-27 03:28 | 30.77090 | 114.19829 | 104 ft | 8 kts | 316° |
| 2026-04-27 03:28 | 30.77129 | 114.19782 | 103 ft | 8 kts | 312° |
| 2026-04-27 03:28 | 30.77156 | 114.19746 | 103 ft | 0 kts | 312° |
| 2026-04-27 03:29 | 30.77158 | 114.19744 | 103 ft | 1 kts | 312° |
| 2026-04-27 03:29 | 30.77175 | 114.19722 | 103 ft | 6 kts | 312° |
| 2026-04-27 03:29 | 30.77220 | 114.19674 | 103 ft | 11 kts | 334° |
| 2026-04-27 03:30 | 30.77284 | 114.19706 | 103 ft | 10 kts | 42° |
| 2026-04-27 03:30 | 30.77351 | 114.19776 | 104 ft | 18 kts | 42° |
| 2026-04-27 03:30 | 30.77598 | 114.20028 | 104 ft | 82 kts | 41° |
| 2026-04-27 03:30 | 30.78191 | 114.20629 | 111 ft | 142 kts | 41° |
| 2026-04-27 03:31 | 30.79028 | 114.21468 | 445 ft | 159 kts | 40° |
| 2026-04-27 03:31 | 30.79940 | 114.22198 | 1077 ft | 165 kts | 27° |
| 2026-04-27 03:31 | 30.81009 | 114.22819 | 1618 ft | 176 kts | 26° |
| 2026-04-27 03:31 | 30.82168 | 114.23440 | 2101 ft | 196 kts | 25° |
| 2026-04-27 03:32 | 30.83489 | 114.24135 | 2452 ft | 221 kts | 27° |
| 2026-04-27 03:32 | 30.84923 | 114.24988 | 2721 ft | 239 kts | 27° |
| 2026-04-27 03:32 | 30.86527 | 114.25493 | 3202 ft | 249 kts | 355° |
| 2026-04-27 03:32 | 30.88252 | 114.24888 | 3546 ft | 269 kts | 323° |
| 2026-04-27 03:33 | 30.89510 | 114.23331 | 4167 ft | 269 kts | 293° |
| 2026-04-27 03:33 | 30.89930 | 114.21275 | 5057 ft | 259 kts | 263° |
| 2026-04-27 03:33 | 30.89401 | 114.19325 | 5948 ft | 252 kts | 239° |
| 2026-04-27 03:33 | 30.88489 | 114.17583 | 6780 ft | 254 kts | 236° |
| 2026-04-27 03:34 | 30.87511 | 114.15841 | 7467 ft | 260 kts | 236° |
| 2026-04-27 03:34 | 30.86508 | 114.14070 | 8169 ft | 264 kts | 237° |
| 2026-04-27 03:34 | 30.85490 | 114.12266 | 8912 ft | 269 kts | 237° |
| 2026-04-27 03:34 | 30.84459 | 114.10427 | 9645 ft | 274 kts | 238° |
| 2026-04-27 03:35 | 30.83414 | 114.08555 | 10270 ft | 282 kts | 238° |
| 2026-04-27 03:35 | 30.82305 | 114.06559 | 10440 ft | 305 kts | 238° |
| 2026-04-27 03:35 | 30.81112 | 114.04406 | 10609 ft | 327 kts | 238° |
| 2026-04-27 03:35 | 30.79849 | 114.02129 | 10992 ft | 340 kts | 238° |
| 2026-04-27 03:36 | 30.78558 | 113.99804 | 11610 ft | 344 kts | 238° |
| 2026-04-27 03:36 | 30.77257 | 113.97457 | 12306 ft | 347 kts | 238° |
| 2026-04-27 03:36 | 30.75945 | 113.95092 | 13008 ft | 349 kts | 238° |
| 2026-04-27 03:36 | 30.74621 | 113.92705 | 13702 ft | 352 kts | 238° |
| 2026-04-27 03:37 | 30.73287 | 113.90303 | 14315 ft | 355 kts | 238° |
| 2026-04-27 03:37 | 30.71889 | 113.87920 | 14950 ft | 359 kts | 231° |
| 2026-04-27 03:37 | 30.69938 | 113.86080 | 15578 ft | 367 kts | 211° |
| 2026-04-27 03:37 | 30.67502 | 113.85096 | 16219 ft | 377 kts | 192° |
| 2026-04-27 03:38 | 30.64862 | 113.85035 | 16815 ft | 388 kts | 175° |
| 2026-04-27 03:38 | 30.62246 | 113.85961 | 17390 ft | 397 kts | 162° |
| 2026-04-27 03:38 | 30.59675 | 113.87188 | 17926 ft | 402 kts | 161° |
| 2026-04-27 03:38 | 30.57095 | 113.88466 | 18528 ft | 403 kts | 161° |
| 2026-04-27 03:39 | 30.54509 | 113.89748 | 19030 ft | 406 kts | 161° |
| 2026-04-27 03:39 | 30.51895 | 113.91026 | 19487 ft | 410 kts | 161° |
| 2026-04-27 03:39 | 30.49247 | 113.92302 | 19941 ft | 413 kts | 162° |
| 2026-04-27 03:39 | 30.46580 | 113.93576 | 20394 ft | 417 kts | 162° |
| 2026-04-27 03:40 | 30.43885 | 113.94858 | 20862 ft | 420 kts | 162° |
| 2026-04-27 03:40 | 30.41176 | 113.96145 | 21330 ft | 422 kts | 162° |
| 2026-04-27 03:40 | 30.38452 | 113.97438 | 21780 ft | 425 kts | 162° |
| 2026-04-27 03:40 | 30.35705 | 113.98741 | 22217 ft | 428 kts | 162° |
| 2026-04-27 03:41 | 30.32920 | 113.99987 | 22637 ft | 429 kts | 168° |
| 2026-04-27 03:41 | 30.29998 | 114.00433 | 22991 ft | 422 kts | 186° |
| 2026-04-27 03:41 | 30.27118 | 113.99882 | 23345 ft | 419 kts | 202° |
| 2026-04-27 03:41 | 30.24449 | 113.98570 | 23712 ft | 417 kts | 209° |
| 2026-04-27 03:42 | 30.21829 | 113.97120 | 24046 ft | 420 kts | 209° |
| 2026-04-27 03:42 | 30.19186 | 113.95651 | 24384 ft | 422 kts | 209° |
| 2026-04-27 03:42 | 30.16533 | 113.94189 | 24736 ft | 424 kts | 209° |
| 2026-04-27 03:42 | 30.13859 | 113.92735 | 25122 ft | 425 kts | 208° |
| 2026-04-27 03:43 | 30.11176 | 113.91290 | 25492 ft | 426 kts | 208° |
| 2026-04-27 03:43 | 30.08500 | 113.89858 | 25497 ft | 421 kts | 208° |
| 2026-04-27 03:43 | 30.05835 | 113.88436 | 25510 ft | 423 kts | 208° |
| 2026-04-27 03:43 | 30.03164 | 113.87010 | 25525 ft | 425 kts | 208° |
| 2026-04-27 03:44 | 30.00481 | 113.85580 | 25525 ft | 424 kts | 208° |
| 2026-04-27 03:44 | 29.97798 | 113.84149 | 25526 ft | 425 kts | 208° |
| 2026-04-27 03:44 | 29.95118 | 113.82721 | 25523 ft | 425 kts | 208° |
| 2026-04-27 03:44 | 29.92433 | 113.81291 | 25521 ft | 425 kts | 208° |
| 2026-04-27 03:45 | 29.89743 | 113.79867 | 25524 ft | 425 kts | 206° |
| 2026-04-27 03:45 | 29.86937 | 113.78756 | 25520 ft | 429 kts | 198° |
| 2026-04-27 03:45 | 29.83990 | 113.78145 | 25524 ft | 433 kts | 188° |
| 2026-04-27 03:45 | 29.80979 | 113.77921 | 25523 ft | 434 kts | 187° |
| 2026-04-27 03:46 | 29.77963 | 113.77743 | 25521 ft | 434 kts | 186° |
| 2026-04-27 03:46 | 29.74953 | 113.77570 | 25517 ft | 434 kts | 186° |
| 2026-04-27 03:46 | 29.71941 | 113.77388 | 25521 ft | 433 kts | 187° |
| 2026-04-27 03:46 | 29.68926 | 113.77195 | 25520 ft | 433 kts | 187° |
| 2026-04-27 03:47 | 29.65918 | 113.76994 | 25529 ft | 433 kts | 187° |
| 2026-04-27 03:47 | 29.62914 | 113.76788 | 25517 ft | 433 kts | 187° |
| 2026-04-27 03:47 | 29.59904 | 113.76578 | 25518 ft | 433 kts | 187° |
| 2026-04-27 03:47 | 29.56897 | 113.76369 | 25516 ft | 433 kts | 187° |
| 2026-04-27 03:48 | 29.53884 | 113.76159 | 25520 ft | 432 kts | 187° |
| 2026-04-27 03:48 | 29.50881 | 113.75950 | 25521 ft | 432 kts | 187° |
| 2026-04-27 03:48 | 29.47887 | 113.75742 | 25515 ft | 431 kts | 187° |
| 2026-04-27 03:48 | 29.44891 | 113.75534 | 25536 ft | 431 kts | 187° |
| 2026-04-27 03:49 | 29.41897 | 113.75325 | 25531 ft | 432 kts | 187° |
| 2026-04-27 03:49 | 29.38888 | 113.75118 | 25531 ft | 432 kts | 187° |
| 2026-04-27 03:49 | 29.35887 | 113.74907 | 25508 ft | 433 kts | 187° |
| 2026-04-27 03:49 | 29.32888 | 113.74695 | 25533 ft | 433 kts | 187° |
| 2026-04-27 03:50 | 29.29880 | 113.74491 | 25512 ft | 432 kts | 187° |
| 2026-04-27 03:50 | 29.26919 | 113.74290 | 25515 ft | 431 kts | 187° |
| 2026-04-27 03:50 | 29.23926 | 113.74086 | 25526 ft | 431 kts | 186° |
| 2026-04-27 03:50 | 29.20922 | 113.74037 | 25525 ft | 432 kts | 182° |
| 2026-04-27 03:51 | 29.17913 | 113.74113 | 25537 ft | 433 kts | 181° |
| 2026-04-27 03:51 | 29.14903 | 113.74229 | 25535 ft | 433 kts | 181° |
| 2026-04-27 03:51 | 29.11854 | 113.74352 | 25528 ft | 433 kts | 181° |
| 2026-04-27 03:51 | 29.08835 | 113.74464 | 25527 ft | 433 kts | 181° |
| 2026-04-27 03:52 | 29.05861 | 113.74565 | 25524 ft | 434 kts | 182° |
| 2026-04-27 03:52 | 29.02844 | 113.74658 | 25524 ft | 434 kts | 182° |
| 2026-04-27 03:52 | 28.99831 | 113.74747 | 25528 ft | 434 kts | 182° |
| 2026-04-27 03:52 | 28.96816 | 113.74835 | 25526 ft | 434 kts | 182° |
| 2026-04-27 03:53 | 28.93788 | 113.74922 | 25518 ft | 434 kts | 182° |
| 2026-04-27 03:53 | 28.90782 | 113.74997 | 25514 ft | 430 kts | 183° |
| 2026-04-27 03:53 | 28.87773 | 113.75047 | 25535 ft | 434 kts | 182° |
| 2026-04-27 03:53 | 28.84746 | 113.75148 | 25533 ft | 436 kts | 182° |
| 2026-04-27 03:54 | 28.81708 | 113.75259 | 25532 ft | 436 kts | 182° |
| 2026-04-27 03:54 | 28.78676 | 113.75359 | 25521 ft | 436 kts | 182° |
| 2026-04-27 03:54 | 28.75640 | 113.75449 | 25523 ft | 436 kts | 182° |
| 2026-04-27 03:54 | 28.72608 | 113.75474 | 25529 ft | 434 kts | 185° |
| 2026-04-27 03:55 | 28.69606 | 113.75294 | 25539 ft | 433 kts | 187° |
| 2026-04-27 03:55 | 28.66597 | 113.75054 | 25536 ft | 433 kts | 187° |
| 2026-04-27 03:55 | 28.63579 | 113.74793 | 25538 ft | 434 kts | 187° |
| 2026-04-27 03:55 | 28.60572 | 113.74544 | 25529 ft | 434 kts | 187° |
| 2026-04-27 03:56 | 28.57551 | 113.74308 | 25535 ft | 435 kts | 187° |
| 2026-04-27 03:56 | 28.54531 | 113.74083 | 25537 ft | 435 kts | 186° |
| 2026-04-27 03:56 | 28.51512 | 113.73861 | 25535 ft | 435 kts | 186° |
| 2026-04-27 03:56 | 28.48489 | 113.73641 | 25530 ft | 435 kts | 186° |
| 2026-04-27 03:57 | 28.45469 | 113.73421 | 25531 ft | 434 kts | 186° |
| 2026-04-27 03:57 | 28.42455 | 113.73200 | 25526 ft | 434 kts | 186° |
| 2026-04-27 03:57 | 28.39438 | 113.72980 | 25538 ft | 433 kts | 186° |
| 2026-04-27 03:57 | 28.36428 | 113.72760 | 25528 ft | 433 kts | 186° |
| 2026-04-27 03:58 | 28.33465 | 113.72543 | 25534 ft | 432 kts | 186° |
| 2026-04-27 03:58 | 28.30465 | 113.72325 | 25537 ft | 432 kts | 186° |
| 2026-04-27 03:58 | 28.27434 | 113.72106 | 25538 ft | 431 kts | 186° |
| 2026-04-27 03:58 | 28.24441 | 113.71890 | 25535 ft | 431 kts | 186° |
| 2026-04-27 03:59 | 28.21453 | 113.71674 | 25533 ft | 431 kts | 186° |
| 2026-04-27 03:59 | 28.18498 | 113.71457 | 25537 ft | 431 kts | 186° |
| 2026-04-27 03:59 | 28.15510 | 113.71237 | 25539 ft | 431 kts | 186° |
| 2026-04-27 03:59 | 28.12518 | 113.71017 | 25541 ft | 431 kts | 186° |
| 2026-04-27 04:00 | 28.09528 | 113.70769 | 25540 ft | 431 kts | 187° |
| 2026-04-27 04:00 | 28.06537 | 113.70499 | 25541 ft | 431 kts | 187° |
| 2026-04-27 04:00 | 28.03508 | 113.70225 | 25545 ft | 431 kts | 187° |
| 2026-04-27 04:00 | 28.00557 | 113.69959 | 25537 ft | 432 kts | 187° |
| 2026-04-27 04:01 | 27.97564 | 113.69691 | 25540 ft | 432 kts | 187° |
| 2026-04-27 04:01 | 27.94563 | 113.69422 | 25532 ft | 432 kts | 187° |
| 2026-04-27 04:01 | 27.91567 | 113.69154 | 25534 ft | 432 kts | 187° |
| 2026-04-27 04:01 | 27.88572 | 113.68887 | 25538 ft | 432 kts | 187° |
| 2026-04-27 04:02 | 27.85585 | 113.68621 | 25535 ft | 432 kts | 187° |
| 2026-04-27 04:02 | 27.82583 | 113.68353 | 25535 ft | 432 kts | 187° |
| 2026-04-27 04:02 | 27.79592 | 113.68086 | 25536 ft | 432 kts | 187° |
| 2026-04-27 04:02 | 27.76595 | 113.67819 | 25540 ft | 432 kts | 187° |
| 2026-04-27 04:03 | 27.73601 | 113.67552 | 25534 ft | 432 kts | 187° |
| 2026-04-27 04:03 | 27.70604 | 113.67285 | 25538 ft | 432 kts | 187° |
| 2026-04-27 04:03 | 27.67608 | 113.67019 | 25526 ft | 432 kts | 187° |
| 2026-04-27 04:03 | 27.64604 | 113.66752 | 25533 ft | 432 kts | 187° |
| 2026-04-27 04:04 | 27.61595 | 113.66580 | 25540 ft | 433 kts | 184° |
| 2026-04-27 04:04 | 27.58586 | 113.66504 | 25541 ft | 434 kts | 183° |
| 2026-04-27 04:04 | 27.55560 | 113.66463 | 25537 ft | 434 kts | 183° |
| 2026-04-27 04:04 | 27.52536 | 113.66425 | 25538 ft | 434 kts | 183° |
| 2026-04-27 04:05 | 27.49520 | 113.66379 | 25528 ft | 434 kts | 183° |
| 2026-04-27 04:05 | 27.46492 | 113.66324 | 25541 ft | 434 kts | 184° |
| 2026-04-27 04:05 | 27.43474 | 113.66262 | 25535 ft | 435 kts | 184° |
| 2026-04-27 04:05 | 27.40449 | 113.66194 | 25505 ft | 433 kts | 184° |
| 2026-04-27 04:06 | 27.37455 | 113.66126 | 25546 ft | 430 kts | 184° |
| 2026-04-27 04:06 | 27.34459 | 113.66055 | 25547 ft | 430 kts | 184° |
| 2026-04-27 04:06 | 27.31463 | 113.65992 | 25549 ft | 432 kts | 184° |
| 2026-04-27 04:07 | 27.25434 | 113.65861 | 25544 ft | 434 kts | 184° |
| 2026-04-27 04:07 | 27.22410 | 113.65793 | 25541 ft | 435 kts | 184° |
| 2026-04-27 04:07 | 27.19385 | 113.65747 | 25528 ft | 436 kts | 181° |
| 2026-04-27 04:07 | 27.16353 | 113.66078 | 25543 ft | 440 kts | 171° |
| 2026-04-27 04:08 | 27.13376 | 113.66902 | 25541 ft | 441 kts | 168° |
| 2026-04-27 04:08 | 27.10421 | 113.67810 | 25531 ft | 441 kts | 167° |
| 2026-04-27 04:08 | 27.07464 | 113.68729 | 25544 ft | 440 kts | 167° |
| 2026-04-27 04:08 | 27.04519 | 113.69632 | 25536 ft | 439 kts | 167° |
| 2026-04-27 04:09 | 27.01559 | 113.70527 | 25535 ft | 439 kts | 168° |
| 2026-04-27 04:09 | 26.98613 | 113.71405 | 25537 ft | 439 kts | 168° |
| 2026-04-27 04:09 | 26.95661 | 113.72278 | 25539 ft | 439 kts | 168° |
| 2026-04-27 04:09 | 26.92709 | 113.73148 | 25539 ft | 439 kts | 168° |
| 2026-04-27 04:10 | 26.90709 | 113.73736 | 25541 ft | 439 kts | 168° |
| 2026-04-27 04:10 | 26.87796 | 113.74592 | 25537 ft | 439 kts | 168° |
| 2026-04-27 04:10 | 26.84845 | 113.75460 | 25531 ft | 439 kts | 168° |
| 2026-04-27 04:10 | 26.81889 | 113.76329 | 25540 ft | 439 kts | 168° |
| 2026-04-27 04:11 | 26.78928 | 113.77200 | 25532 ft | 439 kts | 168° |
| 2026-04-27 04:11 | 26.75975 | 113.78068 | 25539 ft | 439 kts | 168° |
| 2026-04-27 04:11 | 26.73023 | 113.78941 | 25538 ft | 439 kts | 168° |
| 2026-04-27 04:11 | 26.70081 | 113.79850 | 25536 ft | 439 kts | 167° |
| 2026-04-27 04:12 | 26.67140 | 113.80779 | 25540 ft | 439 kts | 167° |
| 2026-04-27 04:12 | 26.64205 | 113.81710 | 25538 ft | 439 kts | 167° |
| 2026-04-27 04:12 | 26.61268 | 113.82637 | 25541 ft | 439 kts | 167° |
| 2026-04-27 04:12 | 26.58325 | 113.83563 | 25544 ft | 438 kts | 167° |
| 2026-04-27 04:13 | 26.55391 | 113.84482 | 25538 ft | 438 kts | 168° |
| 2026-04-27 04:13 | 26.52456 | 113.85399 | 25546 ft | 438 kts | 168° |
| 2026-04-27 04:13 | 26.49522 | 113.86314 | 25554 ft | 438 kts | 168° |
| 2026-04-27 04:13 | 26.46576 | 113.87195 | 25551 ft | 438 kts | 169° |
| 2026-04-27 04:14 | 26.43625 | 113.88046 | 25577 ft | 438 kts | 169° |
| 2026-04-27 04:14 | 26.40675 | 113.88888 | 25572 ft | 438 kts | 169° |
| 2026-04-27 04:14 | 26.37719 | 113.89732 | 25562 ft | 438 kts | 169° |
| 2026-04-27 04:14 | 26.34758 | 113.90579 | 25572 ft | 438 kts | 169° |
| 2026-04-27 04:15 | 26.31811 | 113.91427 | 25568 ft | 439 kts | 169° |
| 2026-04-27 04:15 | 26.28851 | 113.92281 | 25579 ft | 439 kts | 169° |
| 2026-04-27 04:15 | 26.25894 | 113.93135 | 25572 ft | 439 kts | 169° |
| 2026-04-27 04:15 | 26.22937 | 113.93988 | 25566 ft | 439 kts | 169° |
| 2026-04-27 04:16 | 26.19983 | 113.94840 | 25570 ft | 439 kts | 169° |
| 2026-04-27 04:16 | 26.17031 | 113.95691 | 25562 ft | 438 kts | 169° |
| 2026-04-27 04:16 | 26.14076 | 113.96542 | 25585 ft | 438 kts | 169° |
| 2026-04-27 04:16 | 26.11128 | 113.97393 | 25577 ft | 438 kts | 169° |
| 2026-04-27 04:17 | 26.08177 | 113.98243 | 25582 ft | 438 kts | 169° |
| 2026-04-27 04:17 | 26.05230 | 113.99090 | 25578 ft | 438 kts | 169° |
| 2026-04-27 04:17 | 26.02276 | 113.99939 | 25577 ft | 438 kts | 169° |
| 2026-04-27 04:17 | 25.99329 | 114.00796 | 25574 ft | 438 kts | 168° |
| 2026-04-27 04:18 | 25.96381 | 114.01669 | 25571 ft | 438 kts | 168° |
| 2026-04-27 04:18 | 25.93436 | 114.02547 | 25575 ft | 437 kts | 168° |
| 2026-04-27 04:18 | 25.90502 | 114.03424 | 25575 ft | 437 kts | 168° |
| 2026-04-27 04:18 | 25.87568 | 114.04300 | 25582 ft | 436 kts | 168° |
| 2026-04-27 04:19 | 25.84639 | 114.05172 | 25579 ft | 436 kts | 168° |
| 2026-04-27 04:19 | 25.81709 | 114.06042 | 25574 ft | 435 kts | 168° |
| 2026-04-27 04:19 | 25.78783 | 114.06909 | 25567 ft | 435 kts | 168° |
| 2026-04-27 04:19 | 25.75857 | 114.07777 | 25578 ft | 435 kts | 168° |
| 2026-04-27 04:20 | 25.72972 | 114.08625 | 25594 ft | 435 kts | 168° |
| 2026-04-27 04:20 | 25.70041 | 114.09494 | 25581 ft | 435 kts | 168° |
| 2026-04-27 04:20 | 25.67116 | 114.10363 | 25567 ft | 436 kts | 168° |
| 2026-04-27 04:20 | 25.64184 | 114.11233 | 25586 ft | 436 kts | 168° |
| 2026-04-27 04:21 | 25.61255 | 114.12100 | 25589 ft | 436 kts | 168° |
| 2026-04-27 04:21 | 25.58313 | 114.12970 | 25576 ft | 437 kts | 168° |
| 2026-04-27 04:21 | 25.55376 | 114.13839 | 25575 ft | 437 kts | 168° |
| 2026-04-27 04:21 | 25.52436 | 114.14706 | 25572 ft | 438 kts | 168° |
| 2026-04-27 04:22 | 25.49490 | 114.15574 | 25583 ft | 438 kts | 168° |
| 2026-04-27 04:22 | 25.46552 | 114.16440 | 25581 ft | 437 kts | 168° |
| 2026-04-27 04:22 | 25.43618 | 114.17305 | 25584 ft | 437 kts | 168° |
| 2026-04-27 04:22 | 25.40679 | 114.18171 | 25581 ft | 436 kts | 168° |
| 2026-04-27 04:23 | 25.37743 | 114.19036 | 25584 ft | 436 kts | 168° |
| 2026-04-27 04:23 | 25.34812 | 114.19899 | 25571 ft | 436 kts | 169° |
| 2026-04-27 04:23 | 25.31883 | 114.20761 | 25571 ft | 436 kts | 169° |
| 2026-04-27 04:23 | 25.28956 | 114.21622 | 25581 ft | 435 kts | 169° |
| 2026-04-27 04:24 | 25.26022 | 114.22484 | 25576 ft | 435 kts | 168° |
| 2026-04-27 04:24 | 25.23099 | 114.23343 | 25586 ft | 435 kts | 168° |
| 2026-04-27 04:24 | 25.20168 | 114.24203 | 25576 ft | 436 kts | 168° |
| 2026-04-27 04:24 | 25.17239 | 114.25063 | 25586 ft | 435 kts | 168° |
| 2026-04-27 04:25 | 25.14317 | 114.25920 | 25580 ft | 436 kts | 168° |
| 2026-04-27 04:25 | 25.11365 | 114.26660 | 25570 ft | 433 kts | 176° |
| 2026-04-27 04:25 | 25.08373 | 114.26867 | 25581 ft | 429 kts | 185° |
| 2026-04-27 04:25 | 25.05415 | 114.26559 | 25569 ft | 425 kts | 194° |
| 2026-04-27 04:26 | 25.02523 | 114.25925 | 25578 ft | 424 kts | 195° |
| 2026-04-27 04:26 | 24.99633 | 114.25263 | 25566 ft | 424 kts | 195° |
| 2026-04-27 04:26 | 24.96746 | 114.24601 | 25580 ft | 424 kts | 195° |
| 2026-04-27 04:26 | 24.93847 | 114.23945 | 25586 ft | 425 kts | 195° |
| 2026-04-27 04:27 | 24.90955 | 114.23301 | 25584 ft | 426 kts | 195° |
| 2026-04-27 04:27 | 24.88041 | 114.22659 | 25584 ft | 426 kts | 194° |
| 2026-04-27 04:27 | 24.85143 | 114.22026 | 25586 ft | 426 kts | 194° |
| 2026-04-27 04:27 | 24.82231 | 114.21392 | 25590 ft | 427 kts | 194° |
| 2026-04-27 04:28 | 24.79308 | 114.20757 | 25579 ft | 427 kts | 194° |
| 2026-04-27 04:28 | 24.76394 | 114.20124 | 25567 ft | 427 kts | 195° |
| 2026-04-27 04:28 | 24.73516 | 114.19498 | 25582 ft | 427 kts | 194° |
| 2026-04-27 04:28 | 24.70598 | 114.18867 | 25582 ft | 426 kts | 194° |
| 2026-04-27 04:29 | 24.67648 | 114.18229 | 25575 ft | 426 kts | 194° |
| 2026-04-27 04:29 | 24.64741 | 114.17599 | 25585 ft | 426 kts | 194° |
| 2026-04-27 04:29 | 24.61876 | 114.16978 | 25583 ft | 425 kts | 194° |
| 2026-04-27 04:29 | 24.58976 | 114.16350 | 25588 ft | 425 kts | 194° |
| 2026-04-27 04:30 | 24.56095 | 114.15727 | 25348 ft | 417 kts | 194° |
| 2026-04-27 04:30 | 24.53290 | 114.15123 | 25130 ft | 406 kts | 195° |
| 2026-04-27 04:30 | 24.50534 | 114.14527 | 24715 ft | 402 kts | 195° |
| 2026-04-27 04:30 | 24.47804 | 114.13935 | 24235 ft | 400 kts | 195° |
| 2026-04-27 04:31 | 24.45072 | 114.13343 | 23728 ft | 399 kts | 195° |
| 2026-04-27 04:31 | 24.42351 | 114.12754 | 23167 ft | 398 kts | 195° |
| 2026-04-27 04:31 | 24.39643 | 114.12170 | 22691 ft | 394 kts | 195° |
| 2026-04-27 04:31 | 24.36971 | 114.11584 | 22266 ft | 389 kts | 197° |
| 2026-04-27 04:32 | 24.34426 | 114.10693 | 21789 ft | 381 kts | 206° |
| 2026-04-27 04:32 | 24.32101 | 114.09354 | 21325 ft | 374 kts | 215° |
| 2026-04-27 04:32 | 24.29895 | 114.07860 | 20867 ft | 371 kts | 215° |
| 2026-04-27 04:32 | 24.27705 | 114.06380 | 20426 ft | 368 kts | 215° |
| 2026-04-27 04:33 | 24.25545 | 114.04886 | 19972 ft | 366 kts | 216° |
| 2026-04-27 04:33 | 24.23415 | 114.03395 | 19613 ft | 360 kts | 215° |
| 2026-04-27 04:33 | 24.21321 | 114.01930 | 19259 ft | 356 kts | 215° |
| 2026-04-27 04:33 | 24.19236 | 114.00475 | 18803 ft | 354 kts | 215° |
| 2026-04-27 04:34 | 24.17162 | 113.99030 | 18346 ft | 352 kts | 215° |
| 2026-04-27 04:34 | 24.15095 | 113.97599 | 17870 ft | 350 kts | 214° |
| 2026-04-27 04:34 | 24.13047 | 113.96180 | 17435 ft | 347 kts | 214° |
| 2026-04-27 04:34 | 24.11024 | 113.94756 | 16961 ft | 345 kts | 217° |
| 2026-04-27 04:35 | 24.09161 | 113.93127 | 16508 ft | 342 kts | 223° |
| 2026-04-27 04:35 | 24.07396 | 113.91394 | 16044 ft | 340 kts | 223° |
| 2026-04-27 04:35 | 24.05660 | 113.89653 | 15573 ft | 339 kts | 223° |
| 2026-04-27 04:35 | 24.03924 | 113.87911 | 15149 ft | 337 kts | 223° |
| 2026-04-27 04:36 | 24.02198 | 113.86187 | 14730 ft | 335 kts | 222° |
| 2026-04-27 04:36 | 24.00479 | 113.84480 | 14301 ft | 334 kts | 222° |
| 2026-04-27 04:36 | 23.98760 | 113.82780 | 13913 ft | 332 kts | 222° |
| 2026-04-27 04:36 | 23.97034 | 113.81078 | 13837 ft | 337 kts | 221° |
| 2026-04-27 04:37 | 23.95296 | 113.79368 | 13784 ft | 335 kts | 221° |
| 2026-04-27 04:37 | 23.93571 | 113.77672 | 13781 ft | 332 kts | 221° |
| 2026-04-27 04:37 | 23.91858 | 113.75987 | 13781 ft | 331 kts | 221° |
| 2026-04-27 04:37 | 23.90140 | 113.74300 | 13790 ft | 333 kts | 221° |
| 2026-04-27 04:38 | 23.88421 | 113.72615 | 13780 ft | 332 kts | 221° |
| 2026-04-27 04:38 | 23.86703 | 113.70931 | 13764 ft | 331 kts | 221° |
| 2026-04-27 04:38 | 23.84994 | 113.69258 | 13774 ft | 330 kts | 221° |
| 2026-04-27 04:38 | 23.83289 | 113.67588 | 13777 ft | 330 kts | 221° |
| 2026-04-27 04:39 | 23.81581 | 113.65916 | 13767 ft | 329 kts | 221° |
| 2026-04-27 04:39 | 23.79877 | 113.64247 | 13775 ft | 329 kts | 221° |
| 2026-04-27 04:39 | 23.78169 | 113.62578 | 13780 ft | 329 kts | 221° |
| 2026-04-27 04:39 | 23.76458 | 113.60904 | 13777 ft | 330 kts | 221° |
| 2026-04-27 04:40 | 23.74745 | 113.59228 | 13768 ft | 331 kts | 221° |
| 2026-04-27 04:40 | 23.73029 | 113.57550 | 13762 ft | 332 kts | 221° |
| 2026-04-27 04:40 | 23.71307 | 113.55868 | 13765 ft | 332 kts | 221° |
| 2026-04-27 04:40 | 23.69586 | 113.54187 | 13760 ft | 333 kts | 221° |
| 2026-04-27 04:41 | 23.67857 | 113.52499 | 13766 ft | 334 kts | 221° |
| 2026-04-27 04:41 | 23.66131 | 113.50814 | 13768 ft | 334 kts | 221° |
| 2026-04-27 04:41 | 23.64407 | 113.49132 | 13760 ft | 334 kts | 221° |
| 2026-04-27 04:41 | 23.62667 | 113.47434 | 13754 ft | 334 kts | 221° |
| 2026-04-27 04:42 | 23.60938 | 113.45748 | 13756 ft | 333 kts | 221° |
| 2026-04-27 04:42 | 23.59218 | 113.44070 | 13760 ft | 333 kts | 221° |
| 2026-04-27 04:42 | 23.57490 | 113.42387 | 13772 ft | 332 kts | 221° |
| 2026-04-27 04:42 | 23.55763 | 113.40705 | 13768 ft | 332 kts | 221° |
| 2026-04-27 04:43 | 23.53973 | 113.39123 | 13757 ft | 331 kts | 213° |
| 2026-04-27 04:43 | 23.51969 | 113.37898 | 13751 ft | 330 kts | 203° |
| 2026-04-27 04:43 | 23.49821 | 113.37025 | 13769 ft | 330 kts | 200° |
| 2026-04-27 04:43 | 23.47654 | 113.36209 | 13773 ft | 330 kts | 199° |
| 2026-04-27 04:44 | 23.45480 | 113.35400 | 13742 ft | 331 kts | 199° |
| 2026-04-27 04:44 | 23.43291 | 113.34583 | 13470 ft | 332 kts | 199° |
| 2026-04-27 04:44 | 23.41125 | 113.33771 | 13216 ft | 328 kts | 199° |
| 2026-04-27 04:44 | 23.38973 | 113.32960 | 12962 ft | 326 kts | 199° |
| 2026-04-27 04:45 | 23.36829 | 113.32149 | 12713 ft | 325 kts | 199° |
| 2026-04-27 04:45 | 23.34697 | 113.31340 | 12465 ft | 324 kts | 199° |
| 2026-04-27 04:45 | 23.32569 | 113.30532 | 12222 ft | 323 kts | 199° |
| 2026-04-27 04:45 | 23.30448 | 113.29727 | 11976 ft | 323 kts | 199° |
| 2026-04-27 04:46 | 23.28335 | 113.28924 | 11824 ft | 322 kts | 199° |
| 2026-04-27 04:46 | 23.26221 | 113.28121 | 11783 ft | 322 kts | 199° |
| 2026-04-27 04:46 | 23.24103 | 113.27317 | 11766 ft | 321 kts | 199° |
| 2026-04-27 04:46 | 23.22002 | 113.26519 | 11762 ft | 321 kts | 199° |
| 2026-04-27 04:47 | 23.19889 | 113.25717 | 11759 ft | 322 kts | 200° |
| 2026-04-27 04:47 | 23.17768 | 113.24911 | 11750 ft | 322 kts | 200° |
| 2026-04-27 04:47 | 23.15681 | 113.24120 | 11747 ft | 322 kts | 200° |
| 2026-04-27 04:47 | 23.13541 | 113.23309 | 11751 ft | 322 kts | 200° |
| 2026-04-27 04:48 | 23.11454 | 113.22518 | 11746 ft | 322 kts | 200° |
| 2026-04-27 04:48 | 23.09316 | 113.21708 | 11745 ft | 322 kts | 200° |
| 2026-04-27 04:48 | 23.07203 | 113.20908 | 11743 ft | 321 kts | 200° |
| 2026-04-27 04:48 | 23.05115 | 113.20117 | 11746 ft | 321 kts | 200° |
| 2026-04-27 04:49 | 23.03007 | 113.19320 | 11750 ft | 321 kts | 199° |
| 2026-04-27 04:49 | 23.00851 | 113.18662 | 11747 ft | 322 kts | 193° |
| 2026-04-27 04:49 | 22.98646 | 113.18209 | 11753 ft | 322 kts | 191° |
| 2026-04-27 04:49 | 22.96438 | 113.17799 | 11749 ft | 323 kts | 191° |
| 2026-04-27 04:50 | 22.94222 | 113.17394 | 11743 ft | 323 kts | 191° |
| 2026-04-27 04:50 | 22.92010 | 113.16985 | 11742 ft | 322 kts | 191° |
| 2026-04-27 04:50 | 22.89799 | 113.16571 | 11745 ft | 322 kts | 191° |
| 2026-04-27 04:50 | 22.87618 | 113.16159 | 11639 ft | 315 kts | 191° |
| 2026-04-27 04:51 | 22.85490 | 113.15753 | 11440 ft | 306 kts | 191° |
| 2026-04-27 04:51 | 22.83415 | 113.15354 | 11239 ft | 299 kts | 191° |
| 2026-04-27 04:51 | 22.81391 | 113.14965 | 11044 ft | 291 kts | 191° |
| 2026-04-27 04:51 | 22.79425 | 113.14585 | 10845 ft | 285 kts | 191° |
| 2026-04-27 04:52 | 22.77479 | 113.14208 | 10655 ft | 282 kts | 191° |
| 2026-04-27 04:52 | 22.75559 | 113.13837 | 10479 ft | 281 kts | 191° |
| 2026-04-27 04:52 | 22.73624 | 113.13462 | 10298 ft | 281 kts | 191° |
| 2026-04-27 04:52 | 22.71705 | 113.13090 | 10112 ft | 280 kts | 191° |
| 2026-04-27 04:53 | 22.69788 | 113.12719 | 9931 ft | 280 kts | 191° |
| 2026-04-27 04:53 | 22.67870 | 113.12347 | 9834 ft | 281 kts | 191° |
| 2026-04-27 04:53 | 22.65936 | 113.11973 | 9802 ft | 285 kts | 191° |
| 2026-04-27 04:53 | 22.63989 | 113.11597 | 9783 ft | 282 kts | 191° |
| 2026-04-27 04:54 | 22.62714 | 113.11350 | 9773 ft | 280 kts | 191° |
| 2026-04-27 04:54 | 22.60801 | 113.10981 | 9787 ft | 280 kts | 191° |
| 2026-04-27 04:54 | 22.58228 | 113.10483 | 9782 ft | 280 kts | 191° |
| 2026-04-27 04:54 | 22.56962 | 113.10239 | 9779 ft | 279 kts | 191° |
| 2026-04-27 04:55 | 22.55047 | 113.09868 | 9785 ft | 279 kts | 191° |
| 2026-04-27 04:55 | 22.53146 | 113.09501 | 9781 ft | 279 kts | 191° |
| 2026-04-27 04:55 | 22.51227 | 113.09130 | 9789 ft | 279 kts | 191° |
| 2026-04-27 04:55 | 22.49298 | 113.08758 | 9604 ft | 284 kts | 191° |
| 2026-04-27 04:56 | 22.47365 | 113.08385 | 9399 ft | 284 kts | 191° |
| 2026-04-27 04:56 | 22.45407 | 113.08007 | 9198 ft | 284 kts | 191° |
| 2026-04-27 04:56 | 22.43473 | 113.07634 | 8984 ft | 281 kts | 191° |
| 2026-04-27 04:56 | 22.41563 | 113.07265 | 8791 ft | 277 kts | 191° |
| 2026-04-27 04:57 | 22.39677 | 113.06902 | 8592 ft | 275 kts | 191° |
| 2026-04-27 04:57 | 22.37802 | 113.06541 | 8398 ft | 273 kts | 191° |
| 2026-04-27 04:57 | 22.35932 | 113.06181 | 8199 ft | 272 kts | 191° |
| 2026-04-27 04:57 | 22.34067 | 113.05822 | 8008 ft | 271 kts | 189° |
| 2026-04-27 04:58 | 22.32212 | 113.05464 | 7799 ft | 271 kts | 192° |
| 2026-04-27 04:58 | 22.30375 | 113.05018 | 7621 ft | 270 kts | 190° |
| 2026-04-27 04:58 | 22.28515 | 113.04733 | 7424 ft | 269 kts | 189° |
| 2026-04-27 04:58 | 22.26673 | 113.04401 | 7235 ft | 268 kts | 191° |
| 2026-04-27 04:59 | 22.24839 | 113.04064 | 7036 ft | 267 kts | 190° |
| 2026-04-27 04:59 | 22.22996 | 113.03989 | 6916 ft | 266 kts | 177° |
| 2026-04-27 04:59 | 22.21139 | 113.04122 | 6736 ft | 269 kts | 177° |
| 2026-04-27 04:59 | 22.19274 | 113.04269 | 6544 ft | 268 kts | 177° |
| 2026-04-27 05:00 | 22.17424 | 113.04417 | 6347 ft | 264 kts | 176° |
| 2026-04-27 05:00 | 22.15606 | 113.04550 | 6146 ft | 259 kts | 176° |
| 2026-04-27 05:00 | 22.13821 | 113.04673 | 5938 ft | 255 kts | 177° |
| 2026-04-27 05:00 | 22.12062 | 113.04791 | 5743 ft | 252 kts | 177° |
| 2026-04-27 05:01 | 22.10323 | 113.04905 | 5543 ft | 249 kts | 176° |
| 2026-04-27 05:01 | 22.08641 | 113.05286 | 5324 ft | 248 kts | 154° |
| 2026-04-27 05:01 | 22.07274 | 113.06418 | 5162 ft | 249 kts | 139° |
| 2026-04-27 05:01 | 22.06034 | 113.07728 | 5045 ft | 251 kts | 137° |
| 2026-04-27 05:02 | 22.04805 | 113.09060 | 5007 ft | 250 kts | 136° |
| 2026-04-27 05:02 | 22.03581 | 113.10389 | 5009 ft | 252 kts | 137° |
| 2026-04-27 05:02 | 22.01078 | 113.13096 | 5006 ft | 255 kts | 136° |
| 2026-04-27 05:03 | 21.99817 | 113.14450 | 4786 ft | 258 kts | 137° |
| 2026-04-27 05:03 | 21.98609 | 113.15751 | 4596 ft | 249 kts | 137° |
| 2026-04-27 05:03 | 21.97400 | 113.17056 | 4336 ft | 240 kts | 137° |
| 2026-04-27 05:03 | 21.96236 | 113.18306 | 4084 ft | 232 kts | 137° |
| 2026-04-27 05:04 | 21.95108 | 113.19517 | 3809 ft | 225 kts | 136° |
| 2026-04-27 05:04 | 21.94020 | 113.20679 | 3575 ft | 216 kts | 136° |
| 2026-04-27 05:04 | 21.92982 | 113.21777 | 3361 ft | 207 kts | 137° |
| 2026-04-27 05:04 | 21.91973 | 113.22835 | 3107 ft | 199 kts | 136° |
| 2026-04-27 05:05 | 21.91285 | 113.24045 | 3002 ft | 186 kts | 103° |
| 2026-04-27 05:05 | 21.91444 | 113.25374 | 2834 ft | 179 kts | 70° |
| 2026-04-27 05:05 | 21.92036 | 113.26537 | 2577 ft | 172 kts | 62° |
| 2026-04-27 05:05 | 21.92682 | 113.27558 | 2386 ft | 157 kts | 60° |
| 2026-04-27 05:06 | 21.93262 | 113.28513 | 2043 ft | 152 kts | 63° |
| 2026-04-27 05:06 | 21.93825 | 113.29465 | 1711 ft | 152 kts | 59° |
| 2026-04-27 05:06 | 21.94465 | 113.30372 | 1431 ft | 152 kts | 57° |
| 2026-04-27 05:06 | 21.95095 | 113.31277 | 1217 ft | 150 kts | 56° |
| 2026-04-27 05:07 | 21.95757 | 113.32144 | 1020 ft | 149 kts | 51° |
| 2026-04-27 05:07 | 21.96451 | 113.32969 | 808 ft | 149 kts | 51° |
| 2026-04-27 05:07 | 21.97149 | 113.33784 | 679 ft | 146 kts | 52° |
| 2026-04-27 05:07 | 21.97851 | 113.34566 | 467 ft | 143 kts | 53° |
| 2026-04-27 05:08 | 21.98520 | 113.35366 | 307 ft | 144 kts | 48° |
| 2026-04-27 05:08 | 21.99238 | 113.36129 | 122 ft | 145 kts | 48° |
| 2026-04-27 05:08 | 21.99942 | 113.36871 | 30 ft | 134 kts | 51° |
| 2026-04-27 05:08 | 22.00491 | 113.37479 | 28 ft | 92 kts | 44° |
| 2026-04-27 05:09 | 22.00837 | 113.37848 | 28 ft | 49 kts | 44° |
| 2026-04-27 05:09 | 22.01042 | 113.38061 | 26 ft | 39 kts | 40° |
| 2026-04-27 05:09 | 22.01207 | 113.38165 | 25 ft | 22 kts | 22° |
| 2026-04-27 05:09 | 22.01326 | 113.38188 | 28 ft | 13 kts | 336° |
| 2026-04-27 05:10 | 22.01324 | 113.38104 | 26 ft | 13 kts | 231° |
| 2026-04-27 05:10 | 22.01260 | 113.38038 | 27 ft | 13 kts | 222° |
| 2026-04-27 05:10 | 22.01198 | 113.37974 | 27 ft | 12 kts | 225° |
| 2026-04-27 05:10 | 22.01133 | 113.37902 | 26 ft | 15 kts | 225° |
| 2026-04-27 05:11 | 22.01046 | 113.37809 | 27 ft | 20 kts | 224° |
| 2026-04-27 05:11 | 22.00941 | 113.37698 | 27 ft | 22 kts | 225° |
| 2026-04-27 05:11 | 22.00836 | 113.37588 | 27 ft | 14 kts | 226° |
| 2026-04-27 05:11 | 22.00830 | 113.37505 | 27 ft | 12 kts | 307° |
| 2026-04-27 05:12 | 22.00887 | 113.37443 | 27 ft | 12 kts | 316° |
| 2026-04-27 05:12 | 22.00944 | 113.37383 | 27 ft | 11 kts | 314° |
| 2026-04-27 05:12 | 22.00955 | 113.37320 | 27 ft | 7 kts | 238° |
| 2026-04-27 05:12 | 22.00937 | 113.37300 | 27 ft | 2 kts | 225° |
| 2026-04-27 05:13 | 22.00929 | 113.37292 | 27 ft | 0 kts | 225° |